Time;durP1;ratioP1;P1;durP2;ratioP2;P2;SDS_P1;SDS_P2;PMS_P1;PMS_P2;Temp;Humidity;BMP_temperature;BMP_pressure;BME280_temperature;BME280_humidity;BME280_pressure;Samples;Min_cycle;Max_cycle;Signal;HPM_P1;HPM_P2
2022/11/30 00:00:11;;;;;;;;;0.00;0.00;;;;;11.24;77.07;100611.47;5055750;28;45824;-78
2022/11/30 00:02:37;;;;;;;;;0.00;0.00;;;;;11.24;76.79;100607.94;5053793;28;45527;-70
2022/11/30 00:05:03;;;;;;;;;0.00;0.00;;;;;11.24;77.25;100605.31;5055696;28;45406;-79
2022/11/30 00:07:28;;;;;;;;;1.00;0.00;;;;;11.24;77.62;100607.94;5055635;28;45879;-80
2022/11/30 00:09:54;;;;;;;;;0.00;0.00;;;;;11.11;77.59;100581.44;5055805;28;45456;-79
2022/11/30 00:12:19;;;;;;;;;0.00;0.00;;;;;11.22;78.10;100600.06;5055913;28;45472;-80
2022/11/30 00:14:45;;;;;;;;;0.00;0.00;;;;;11.17;77.69;100585.09;5055778;28;46032;-79
2022/11/30 00:17:10;;;;;;;;;0.33;0.00;;;;;11.18;77.78;100589.47;5055580;28;45520;-70
2022/11/30 00:19:36;;;;;;;;;1.67;0.00;;;;;11.13;77.98;100590.22;5056036;28;45358;-70
2022/11/30 00:22:01;;;;;;;;;0.00;0.00;;;;;11.04;78.19;100586.44;5055897;28;45348;-70
2022/11/30 00:24:27;;;;;;;;;0.00;0.00;;;;;10.94;78.37;100588.81;5055747;28;46169;-70
2022/11/30 00:26:52;;;;;;;;;0.00;0.00;;;;;10.87;78.59;100589.47;5055406;28;45363;-70
2022/11/30 00:29:18;;;;;;;;;1.00;1.00;;;;;10.81;78.75;100581.44;5055603;28;45359;-71
2022/11/30 00:31:43;;;;;;;;;3.00;2.00;;;;;10.65;79.31;100569.66;5055732;28;45468;-70
2022/11/30 00:34:09;;;;;;;;;0.00;0.00;;;;;10.65;79.24;100584.47;5055582;28;46020;-80
2022/11/30 00:36:34;;;;;;;;;1.00;1.00;;;;;10.61;79.44;100582.59;5055137;28;45341;-80
2022/11/30 00:39:00;;;;;;;;;0.00;0.00;;;;;10.24;79.59;100518.75;5055979;28;45312;-75
2022/11/30 00:41:25;;;;;;;;;1.00;0.00;;;;;10.46;79.88;100568.19;5055714;28;45361;-80
2022/11/30 00:43:51;;;;;;;;;1.00;0.50;;;;;10.44;80.31;100563.78;5055185;28;45439;-76
2022/11/30 00:46:17;;;;;;;;;0.00;0.00;;;;;10.39;80.07;100571.47;5055242;28;45279;-81
2022/11/30 00:48:42;;;;;;;;;0.00;0.00;;;;;10.31;80.39;100560.78;5055330;28;45288;-80
2022/11/30 00:51:10;;;;;;;;;1.00;0.00;;;;;10.31;80.47;100572.97;5055785;28;45476;-77
2022/11/30 00:53:36;;;;;;;;;4.00;3.25;;;;;10.28;80.10;100565.00;5055238;28;45939;-80
2022/11/30 00:56:01;;;;;;;;;3.00;1.67;;;;;10.22;80.01;100560.47;5055040;28;45304;-78
2022/11/30 00:58:27;;;;;;;;;1.00;1.00;;;;;10.16;80.24;100563.75;5055286;28;45378;-80
2022/11/30 01:00:52;;;;;;;;;1.00;1.00;;;;;10.11;80.61;100570.56;5055283;28;45560;-77
2022/11/30 01:03:18;;;;;;;;;2.00;1.00;;;;;10.10;80.65;100562.69;5054865;28;46097;-80
2022/11/30 01:05:43;;;;;;;;;3.00;2.75;;;;;10.06;80.63;100563.44;5054863;28;45424;-73
2022/11/30 01:08:10;;;;;;;;;1.00;1.00;;;;;10.04;80.75;100562.50;5058378;28;45483;-81
2022/11/30 01:10:38;;;;;;;;;1.75;1.75;;;;;9.71;80.83;100508.41;5058936;28;45622;-81
2022/11/30 01:13:05;;;;;;;;;6.25;6.25;;;;;9.99;80.70;100557.13;5058069;28;46322;-80
2022/11/30 01:15:34;;;;;;;;;4.00;4.00;;;;;9.75;80.34;100516.34;5058284;28;45512;-81
2022/11/30 01:17:59;;;;;;;;;1.33;1.33;;;;;9.94;80.79;100558.69;5056175;28;45336;-80
2022/11/30 01:20:25;;;;;;;;;2.00;1.00;;;;;9.90;80.88;100559.44;5058449;28;45634;-80
2022/11/30 01:22:51;;;;;;;;;0.00;0.00;;;;;9.72;81.00;100529.28;5058250;28;45480;-72
2022/11/30 01:25:16;;;;;;;;;0.00;0.00;;;;;9.69;80.78;100544.84;5058299;28;45460;-78
2022/11/30 01:27:42;;;;;;;;;1.00;0.00;;;;;9.75;81.06;100555.50;5058272;28;45660;-80
2022/11/30 01:30:08;;;;;;;;;0.00;0.00;;;;;9.73;80.92;100561.50;5058821;28;45389;-80
2022/11/30 01:32:33;;;;;;;;;0.00;0.00;;;;;9.70;80.62;100559.66;5058049;28;45395;-81
2022/11/30 01:34:59;;;;;;;;;0.00;0.00;;;;;9.69;80.88;100547.47;5057980;28;45373;-80
2022/11/30 01:37:24;;;;;;;;;0.00;0.00;;;;;9.69;80.84;100555.28;5058284;28;45335;-80
2022/11/30 01:39:50;;;;;;;;;0.00;0.00;;;;;9.70;80.64;100556.16;5058427;28;45447;-78
2022/11/30 01:42:18;;;;;;;;;0.00;0.00;;;;;9.69;80.92;100555.28;5058012;28;45563;-80
2022/11/30 01:44:55;;;;;;;;;0.00;0.00;;;;;9.67;81.06;100558.66;5057901;28;45465;-80
2022/11/30 01:47:31;;;;;;;;;0.00;0.00;;;;;9.62;81.06;100561.13;5055627;28;45402;-75
2022/11/30 01:50:36;;;;;;;;;0.00;0.00;;;;;9.61;81.15;100559.38;5058063;28;45441;-80
2022/11/30 01:53:04;;;;;;;;;0.00;0.00;;;;;9.64;80.94;100559.44;5055441;28;46313;-79
2022/11/30 01:55:45;;;;;;;;;0.67;0.00;;;;;9.66;80.86;100560.38;5057804;28;45286;-80
2022/11/30 01:58:27;;;;;;;;;0.00;0.00;;;;;9.70;81.35;100564.88;5056906;28;45483;-71
2022/11/30 02:00:52;;;;;;;;;0.00;0.00;;;;;9.74;81.10;100558.91;5057240;28;46264;-77
2022/11/30 02:03:41;;;;;;;;;3.00;2.00;;;;;9.80;81.17;100563.47;5054693;28;46076;-81
2022/11/30 02:06:07;;;;;;;;;11.75;9.00;;;;;9.81;81.13;100546.97;5056240;28;45565;-81
2022/11/30 02:08:33;;;;;;;;;15.00;12.00;;;;;9.89;80.44;100555.06;5057350;28;45426;-71
2022/11/30 02:11:03;;;;;;;;;5.75;5.50;;;;;9.82;80.20;100547.88;5055040;28;45467;-73
2022/11/30 02:13:58;;;;;;;;;5.00;4.75;;;;;9.87;80.41;100559.34;5057407;28;46179;-75
2022/11/30 02:16:29;;;;;;;;;3.50;3.00;;;;;9.90;80.33;100551.59;5055420;28;45455;-72
2022/11/30 02:19:13;;;;;;;;;10.25;9.00;;;;;9.93;80.48;100554.31;5056134;28;45373;-72
2022/11/30 02:21:58;;;;;;;;;7.25;5.00;;;;;9.96;79.87;100554.41;5055233;28;45408;-80
2022/11/30 02:24:39;;;;;;;;;1.50;0.75;;;;;9.97;80.00;100553.59;5055080;28;46026;-80
2022/11/30 02:27:40;;;;;;;;;4.25;2.75;;;;;9.97;79.94;100550.97;5058951;28;45404;-81
2022/11/30 02:30:17;;;;;;;;;12.00;10.50;;;;;9.95;79.60;100553.53;5046960;28;45369;-81
2022/11/30 02:33:00;;;;;;;;;22.50;19.75;;;;;9.73;79.74;100520.63;5059061;28;45551;-81
2022/11/30 02:35:31;;;;;;;;;9.50;9.00;;;;;9.88;80.08;100553.28;5058686;28;45530;-81
2022/11/30 02:37:58;;;;;;;;;4.50;4.00;;;;;9.84;80.08;100546.19;5058619;28;45487;-80
2022/11/30 02:40:24;;;;;;;;;4.00;3.00;;;;;9.87;80.05;100541.09;5058904;28;45487;-81
2022/11/30 02:42:51;;;;;;;;;0.00;0.00;;;;;9.69;79.67;100512.69;5058934;28;45335;-77
2022/11/30 02:45:28;;;;;;;;;0.67;0.00;;;;;9.72;79.27;100510.16;5058745;28;45663;-81
2022/11/30 02:48:07;;;;;;;;;0.00;0.00;;;;;9.85;79.40;100540.16;5058172;28;45488;-71
2022/11/30 02:50:44;;;;;;;;;0.67;0.00;;;;;9.83;79.69;100537.47;5058626;28;45542;-81
2022/11/30 02:53:10;;;;;;;;;0.00;0.00;;;;;9.83;79.77;100539.19;5058860;28;45467;-80
2022/11/30 02:55:36;;;;;;;;;0.00;0.00;;;;;9.84;79.52;100533.16;5058364;28;46172;-79
2022/11/30 02:58:01;;;;;;;;;0.00;0.00;;;;;9.75;79.71;100524.19;5058564;28;45528;-81
2022/11/30 03:00:27;;;;;;;;;0.00;0.00;;;;;9.72;79.70;100533.63;5058729;28;45499;-81
2022/11/30 03:02:53;;;;;;;;;0.00;0.00;;;;;9.64;79.79;100528.16;5059014;28;45307;-81
2022/11/30 03:05:19;;;;;;;;;0.00;0.00;;;;;9.58;79.99;100535.78;5058298;28;46087;-73
2022/11/30 03:07:44;;;;;;;;;0.00;0.00;;;;;9.54;80.10;100528.69;5058442;28;45262;-81
2022/11/30 03:10:10;;;;;;;;;0.00;0.00;;;;;9.52;80.55;100530.34;5059051;28;45287;-81
2022/11/30 03:12:36;;;;;;;;;0.00;0.00;;;;;9.51;80.78;100528.56;5058864;28;45232;-81
2022/11/30 03:15:02;;;;;;;;;0.00;0.00;;;;;9.51;80.76;100525.94;5058276;28;45342;-81
2022/11/30 03:17:27;;;;;;;;;0.00;0.00;;;;;9.50;80.89;100521.59;5058214;28;45476;-81
2022/11/30 03:19:53;;;;;;;;;1.00;0.00;;;;;9.49;80.66;100520.72;5058172;28;45528;-81
2022/11/30 03:22:18;;;;;;;;;1.75;1.75;;;;;9.49;80.84;100519.81;5058451;28;45365;-80
2022/11/30 03:24:44;;;;;;;;;0.00;0.00;;;;;9.47;80.82;100519.78;5058423;28;45504;-81
2022/11/30 03:27:09;;;;;;;;;0.75;0.75;;;;;9.20;80.82;100469.31;5058416;28;45461;-81
2022/11/30 03:29:35;;;;;;;;;1.00;1.00;;;;;9.36;81.00;100502.88;5057697;28;45547;-81
2022/11/30 03:32:00;;;;;;;;;2.00;1.00;;;;;9.40;80.62;100511.69;5058295;28;45313;-81
2022/11/30 03:34:27;;;;;;;;;0.67;0.67;;;;;9.38;80.47;100505.53;5057805;28;45928;-80
2022/11/30 03:36:53;;;;;;;;;0.75;0.75;;;;;9.36;80.49;100500.25;5057945;28;45239;-80
2022/11/30 03:39:18;;;;;;;;;0.75;0.75;;;;;9.34;80.59;100499.31;5058136;28;45464;-75
2022/11/30 03:41:44;;;;;;;;;2.00;1.00;;;;;9.30;80.84;100498.31;5058254;28;45250;-81
2022/11/30 03:44:09;;;;;;;;;1.75;1.75;;;;;9.29;81.11;100493.97;5057681;28;45460;-81
2022/11/30 03:46:35;;;;;;;;;6.50;6.50;;;;;9.21;80.93;100482.41;5057745;28;45311;-81
2022/11/30 03:49:01;;;;;;;;;2.50;2.00;;;;;9.27;80.96;100485.19;5057715;28;45530;-81
2022/11/30 03:51:27;;;;;;;;;1.50;1.00;;;;;9.25;81.15;100493.78;5057977;28;45453;-73
2022/11/30 03:53:52;;;;;;;;;4.00;3.00;;;;;9.19;80.89;100484.06;5057326;28;45962;-71
2022/11/30 03:56:18;;;;;;;;;3.00;3.00;;;;;9.16;80.99;100481.34;5057522;28;45416;-71
2022/11/30 03:58:43;;;;;;;;;2.00;1.00;;;;;9.11;80.90;100470.75;5056466;28;45562;-72
2022/11/30 04:01:11;;;;;;;;;4.50;4.50;;;;;9.11;81.30;100483.78;5057605;28;45274;-72
2022/11/30 04:03:38;;;;;;;;;3.00;3.00;;;;;9.09;80.99;100481.94;5057269;28;46145;-71
2022/11/30 04:06:05;;;;;;;;;2.00;1.50;;;;;9.07;80.97;100481.91;5057217;28;45492;-81
2022/11/30 04:08:31;;;;;;;;;0.00;0.00;;;;;9.02;81.50;100480.84;5057346;28;45409;-78
2022/11/30 04:10:59;;;;;;;;;2.00;1.25;;;;;8.99;81.86;100480.72;5057316;28;45377;-72
2022/11/30 04:13:26;;;;;;;;;2.00;1.00;;;;;8.97;81.93;100479.78;5057051;28;46317;-81
2022/11/30 04:15:53;;;;;;;;;2.50;2.50;;;;;8.93;82.02;100473.59;5057239;28;45425;-80
2022/11/30 04:18:20;;;;;;;;;2.00;2.00;;;;;8.96;81.80;100475.44;5057431;28;45463;-72
2022/11/30 04:20:48;;;;;;;;;2.25;2.00;;;;;8.96;81.82;100478.91;5057846;28;45490;-81
2022/11/30 04:23:14;;;;;;;;;2.00;2.00;;;;;8.95;81.54;100474.56;5057300;28;45315;-80
2022/11/30 04:25:40;;;;;;;;;4.00;2.75;;;;;8.94;81.40;100477.97;5056856;28;45402;-81
2022/11/30 04:28:07;;;;;;;;;2.00;2.00;;;;;8.92;81.27;100473.56;5056946;28;45480;-82
2022/11/30 04:30:34;;;;;;;;;1.00;0.00;;;;;8.82;81.32;100455.81;5057370;28;45337;-71
2022/11/30 04:33:00;;;;;;;;;0.67;0.00;;;;;8.88;81.58;100471.66;5056770;28;45441;-81
2022/11/30 04:35:25;;;;;;;;;2.00;1.75;;;;;8.77;81.75;100453.03;5056895;28;45567;-81
2022/11/30 04:37:51;;;;;;;;;0.00;0.00;;;;;8.82;81.28;100469.72;5056983;28;45273;-77
2022/11/30 04:40:17;;;;;;;;;0.00;0.00;;;;;8.76;81.76;100470.38;5057544;28;45565;-81
2022/11/30 04:42:42;;;;;;;;;0.00;0.00;;;;;8.47;81.46;100421.56;5059385;28;45493;-72
2022/11/30 04:45:08;;;;;;;;;0.00;0.00;;;;;8.74;81.33;100469.44;5060680;28;45251;-72
2022/11/30 04:47:34;;;;;;;;;0.00;0.00;;;;;8.74;81.60;100468.56;5060547;28;45409;-71
2022/11/30 04:49:59;;;;;;;;;0.00;0.00;;;;;8.70;81.73;100466.69;5060882;28;45339;-81
2022/11/30 04:52:25;;;;;;;;;0.00;0.00;;;;;8.69;81.66;100460.56;5060281;28;46134;-81
2022/11/30 04:54:51;;;;;;;;;0.00;0.00;;;;;8.69;81.81;100467.50;5060281;28;45268;-80
2022/11/30 04:57:17;;;;;;;;;2.25;2.25;;;;;8.67;81.76;100474.38;5060781;28;45495;-79
2022/11/30 04:59:43;;;;;;;;;4.00;4.00;;;;;8.65;81.87;100461.28;5059288;28;45582;-81
2022/11/30 05:02:09;;;;;;;;;5.25;4.00;;;;;8.64;81.74;100471.69;5060116;28;46137;-80
2022/11/30 05:04:35;;;;;;;;;1.00;0.25;;;;;8.57;81.52;100465.34;5060461;28;45924;-82
2022/11/30 05:07:00;;;;;;;;;1.00;1.00;;;;;8.39;81.59;100436.88;5060254;28;45488;-81
2022/11/30 05:09:26;;;;;;;;;2.00;0.75;;;;;8.49;81.72;100462.44;5061561;28;45467;-78
2022/11/30 05:11:51;;;;;;;;;1.00;1.00;;;;;8.47;81.70;100468.44;5061010;28;45486;-78
2022/11/30 05:14:17;;;;;;;;;1.00;1.00;;;;;8.45;81.77;100465.78;5060317;28;45393;-77
2022/11/30 05:16:45;;;;;;;;;0.00;0.00;;;;;8.34;81.97;100459.25;5060156;28;45490;-80
2022/11/30 05:19:12;;;;;;;;;0.00;0.00;;;;;8.39;81.69;100464.63;5060264;28;45778;-73
2022/11/30 05:21:38;;;;;;;;;0.50;0.50;;;;;8.30;82.21;100471.25;5059838;28;46115;-78
2022/11/30 05:24:03;;;;;;;;;1.00;0.75;;;;;8.26;82.08;100458.97;5058541;28;45302;-78
2022/11/30 05:26:29;;;;;;;;;2.00;1.00;;;;;8.27;82.60;100465.94;5058366;28;45599;-75
2022/11/30 05:28:54;;;;;;;;;1.00;1.00;;;;;8.11;82.52;100447.97;5058955;28;45444;-79
2022/11/30 05:31:20;;;;;;;;;1.00;1.00;;;;;8.21;82.55;100460.50;5059243;28;46166;-77
2022/11/30 05:33:52;;;;;;;;;0.00;0.00;;;;;8.19;82.83;100462.16;5056459;28;45538;-78
2022/11/30 05:36:18;;;;;;;;;1.00;1.00;;;;;7.96;82.62;100423.16;5059476;28;45432;-78
2022/11/30 05:38:44;;;;;;;;;1.00;1.00;;;;;8.15;82.51;100462.88;5058656;28;45457;-79
2022/11/30 05:41:10;;;;;;;;;1.00;1.00;;;;;7.98;82.38;100425.81;5058749;28;46192;-80
2022/11/30 05:43:35;;;;;;;;;1.00;1.00;;;;;8.19;82.27;100461.28;5058517;28;46120;-77
2022/11/30 05:46:03;;;;;;;;;2.00;2.00;;;;;8.20;82.19;100463.94;5058839;28;45298;-79
2022/11/30 05:48:28;;;;;;;;;1.75;1.00;;;;;8.21;81.84;100454.41;5058841;28;45568;-78
2022/11/30 05:50:54;;;;;;;;;0.25;0.25;;;;;8.21;82.16;100451.81;5057292;28;45360;-71
2022/11/30 05:53:20;;;;;;;;;0.25;0.25;;;;;8.13;82.18;100428.97;5057718;28;45413;-71
2022/11/30 05:55:45;;;;;;;;;1.75;1.75;;;;;8.23;82.58;100451.03;5057226;28;45248;-76
2022/11/30 05:58:11;;;;;;;;;2.00;1.00;;;;;8.22;82.44;100440.59;5056554;28;45598;-76
2022/11/30 06:00:37;;;;;;;;;1.00;1.00;;;;;8.19;82.18;100441.34;5057404;28;46024;-77
2022/11/30 06:03:02;;;;;;;;;1.00;1.00;;;;;8.16;81.97;100444.72;5057155;28;46005;-73
2022/11/30 06:05:28;;;;;;;;;0.00;0.00;;;;;7.93;82.47;100402.22;5057744;28;45420;-72
2022/11/30 06:07:54;;;;;;;;;1.00;1.00;;;;;8.08;82.16;100425.34;5057464;28;45611;-73
2022/11/30 06:10:20;;;;;;;;;0.00;0.00;;;;;7.96;83.05;100424.88;5056213;28;46824;-71
2022/11/30 06:12:47;;;;;;;;;0.00;0.00;;;;;8.04;82.77;100435.53;5057388;28;45555;-73
2022/11/30 06:15:13;;;;;;;;;0.00;0.00;;;;;8.02;82.81;100427.72;5057212;28;45444;-70
2022/11/30 06:17:38;;;;;;;;;0.00;0.00;;;;;8.03;82.75;100429.47;5057410;28;45367;-73
2022/11/30 06:20:07;;;;;;;;;0.00;0.00;;;;;8.02;82.90;100419.91;5057132;28;45377;-71
2022/11/30 06:22:33;;;;;;;;;0.00;0.00;;;;;8.01;82.86;100410.31;5056991;28;45299;-80
2022/11/30 06:24:59;;;;;;;;;0.00;0.00;;;;;8.10;82.84;100421.06;5056791;28;45576;-80
2022/11/30 06:27:29;;;;;;;;;0.00;0.00;;;;;8.12;83.15;100422.03;5057316;28;45918;-70
2022/11/30 06:29:55;;;;;;;;;1.00;0.50;;;;;8.15;82.81;100424.72;5056769;28;46204;-80
2022/11/30 06:32:21;;;;;;;;;0.00;0.00;;;;;8.17;82.64;100419.56;5057252;28;45345;-81
2022/11/30 06:34:46;;;;;;;;;2.75;2.00;;;;;8.16;82.71;100415.22;5056908;28;45390;-80
2022/11/30 06:37:16;;;;;;;;;1.00;1.00;;;;;8.22;82.60;100420.66;5057444;28;45301;-71
2022/11/30 06:39:41;;;;;;;;;0.00;0.00;;;;;8.24;82.77;100424.19;5054451;28;45448;-80
2022/11/30 06:42:06;;;;;;;;;2.25;2.00;;;;;8.04;82.65;100384.41;5056868;28;45511;-80
2022/11/30 06:44:32;;;;;;;;;45.25;39.75;;;;;8.26;82.30;100416.44;5057173;28;45472;-81
2022/11/30 06:46:58;;;;;;;;;12.00;10.25;;;;;8.06;81.96;100384.50;5057300;28;45512;-80
2022/11/30 06:49:23;;;;;;;;;2.25;2.00;;;;;8.24;81.94;100415.50;5056755;28;45815;-77
2022/11/30 06:51:49;;;;;;;;;3.75;3.75;;;;;8.00;82.10;100376.44;5058866;28;45587;-77
2022/11/30 06:54:14;;;;;;;;;4.25;4.00;;;;;8.23;81.78;100421.53;5057010;28;45462;-81
2022/11/30 06:56:40;;;;;;;;;10.50;10.25;;;;;8.15;81.75;100406.50;5057157;28;45573;-82
2022/11/30 06:59:05;;;;;;;;;24.50;23.00;;;;;8.16;82.59;100403.09;5058330;28;46096;-79
2022/11/30 07:01:31;;;;;;;;;11.50;10.50;;;;;8.21;81.90;100418.84;5057947;28;45386;-81
2022/11/30 07:03:56;;;;;;;;;15.75;15.25;;;;;8.19;82.05;100420.53;5056786;28;45485;-79
2022/11/30 07:06:22;;;;;;;;;16.25;15.50;;;;;8.20;82.30;100429.22;5057212;28;45473;-81
2022/11/30 07:08:48;;;;;;;;;13.75;12.75;;;;;8.24;82.16;100428.53;5056398;28;45471;-80
2022/11/30 07:11:14;;;;;;;;;4.00;3.25;;;;;8.28;81.74;100427.81;5056739;28;45565;-81
2022/11/30 07:13:40;;;;;;;;;6.25;5.50;;;;;8.28;81.90;100427.81;5056468;28;45483;-81
2022/11/30 07:16:09;;;;;;;;;12.25;9.75;;;;;8.29;81.65;100432.16;5056698;28;45481;-79
2022/11/30 07:18:35;;;;;;;;;6.00;6.00;;;;;8.26;81.23;100425.13;5056421;28;46053;-81
2022/11/30 07:21:02;;;;;;;;;5.75;5.75;;;;;8.15;81.68;100409.09;5056208;28;45415;-81
2022/11/30 07:26:12;;;;;;;;;1.00;0.00;;;;;8.14;81.51;100415.16;5055494;28;45278;-81
2022/11/30 07:28:40;;;;;;;;;1.00;0.75;;;;;8.28;81.57;100431.28;5055600;28;45223;-79
2022/11/30 07:31:19;;;;;;;;;0.00;0.00;;;;;8.30;81.50;100432.22;5055829;28;45503;-73
2022/11/30 07:33:46;;;;;;;;;1.00;1.00;;;;;8.33;81.43;100434.03;5053912;28;45483;-81
2022/11/30 07:36:12;;;;;;;;;19.75;16.50;;;;;8.23;81.70;100416.31;5056438;28;45298;-80
2022/11/30 07:38:38;;;;;;;;;62.50;50.50;;;;;8.38;81.76;100424.72;5055716;28;45269;-79
2022/11/30 07:41:04;;;;;;;;;29.25;27.50;;;;;8.26;81.38;100406.91;5055983;28;45697;-81
2022/11/30 07:43:30;;;;;;;;;132.00;116.67;;;;;8.37;81.34;100425.53;5055949;28;45525;-79
2022/11/30 07:45:55;;;;;;;;;80.00;61.00;;;;;8.38;81.53;100427.31;5055906;28;45386;-80
2022/11/30 07:48:21;;;;;;;;;100.00;91.00;;;;;8.22;81.80;100384.22;5053199;28;45655;-80
2022/11/30 07:50:47;;;;;;;;;77.50;59.75;;;;;8.53;81.55;100427.91;5055913;28;45978;-76
2022/11/30 07:53:13;;;;;;;;;21.75;21.50;;;;;8.61;81.50;100435.09;5055960;28;45582;-80
2022/11/30 07:55:39;;;;;;;;;4.75;4.75;;;;;8.62;81.31;100426.47;5055531;28;45563;-79
2022/11/30 07:58:05;;;;;;;;;20.00;19.00;;;;;8.74;81.06;100426.91;5054337;28;45501;-82
2022/11/30 08:00:30;;;;;;;;;7.50;7.50;;;;;8.82;80.64;100433.25;5056574;28;45467;-83
2022/11/30 08:02:56;;;;;;;;;6.50;6.50;;;;;8.90;80.24;100431.81;5055698;28;45464;-80
2022/11/30 08:05:22;;;;;;;;;3.75;3.75;;;;;8.96;80.07;100426.81;5056063;28;45570;-80
2022/11/30 08:07:52;;;;;;;;;4.00;3.00;;;;;9.07;80.32;100428.88;5071144;28;46437;-79
2022/11/30 08:10:20;;;;;;;;;6.50;6.50;;;;;8.82;79.97;100367.25;5055411;28;45682;-71
2022/11/30 08:12:47;;;;;;;;;36.75;35.00;;;;;9.12;78.86;100404.75;5057056;28;45360;-71
2022/11/30 08:15:12;;;;;;;;;7.25;7.25;;;;;9.33;79.39;100432.38;5055961;28;45558;-71
2022/11/30 08:17:38;;;;;;;;;4.75;4.75;;;;;9.42;79.02;100437.00;5056071;28;46443;-71
2022/11/30 08:20:05;;;;;;;;;5.00;4.00;;;;;9.50;78.92;100431.19;5056112;28;45539;-71
2022/11/30 08:22:31;;;;;;;;;7.75;5.50;;;;;9.50;78.09;100406.84;5055549;28;45579;-74
2022/11/30 08:24:57;;;;;;;;;5.50;4.00;;;;;9.70;77.71;100431.84;5055744;28;45586;-85
2022/11/30 08:27:23;;;;;;;;;21.50;17.25;;;;;9.77;77.46;100432.94;5056433;28;45590;-85
2022/11/30 08:29:48;;;;;;;;;31.00;28.75;;;;;9.85;77.33;100422.75;5056223;28;45564;-85
2022/11/30 08:32:14;;;;;;;;;16.00;13.50;;;;;10.03;77.25;100438.06;5057049;28;45381;-81
2022/11/30 08:34:39;;;;;;;;;57.50;48.00;;;;;10.06;75.68;100440.75;5057111;28;45294;-86
2022/11/30 08:37:05;;;;;;;;;24.25;22.50;;;;;10.01;76.08;100448.47;5056766;28;46248;-85
2022/11/30 08:39:33;;;;;;;;;13.25;12.00;;;;;10.08;76.39;100449.53;5056779;28;45446;-85
2022/11/30 08:41:59;;;;;;;;;72.25;54.50;;;;;10.12;75.18;100446.16;5056571;28;45508;-83
2022/11/30 08:44:25;;;;;;;;;55.25;41.75;;;;;10.11;75.40;100444.41;5057313;28;45189;-85
2022/11/30 08:46:50;;;;;;;;;8.25;8.00;;;;;10.15;75.43;100441.03;5056813;28;45284;-85
2022/11/30 08:49:16;;;;;;;;;5.75;5.75;;;;;10.20;75.27;100444.66;5056191;28;45289;-85
2022/11/30 08:51:41;;;;;;;;;6.25;5.00;;;;;10.24;75.27;100448.25;5056969;28;45217;-86
2022/11/30 08:54:07;;;;;;;;;8.50;6.25;;;;;10.34;75.11;100442.50;5056730;28;45503;-83
2022/11/30 08:56:32;;;;;;;;;10.25;9.00;;;;;10.46;75.01;100444.56;5056328;28;45531;-76
2022/11/30 08:58:58;;;;;;;;;7.25;6.00;;;;;10.60;74.72;100450.19;5056445;28;45494;-82
2022/11/30 09:01:24;;;;;;;;;8.25;8.25;;;;;10.71;74.18;100446.16;5057346;28;45425;-74
2022/11/30 09:03:58;;;;;;;;;6.25;5.50;;;;;10.52;74.36;100401.25;5056585;28;45389;-83
2022/11/30 09:06:26;;;;;;;;;9.00;8.00;;;;;10.97;73.69;100446.88;5056569;28;45475;-83
2022/11/30 09:08:56;;;;;;;;;12.75;12.00;;;;;11.15;73.75;100447.34;5056846;28;45353;-83
2022/11/30 09:11:32;;;;;;;;;12.25;11.00;;;;;11.27;72.92;100420.63;5056888;28;45287;-83
2022/11/30 09:14:00;;;;;;;;;6.75;6.00;;;;;12.19;71.73;100450.72;5056732;28;45403;-83
2022/11/30 09:16:26;;;;;;;;;5.00;5.00;;;;;12.90;67.62;100449.53;5056690;28;45546;-83
2022/11/30 09:18:52;;;;;;;;;4.00;4.00;;;;;13.39;67.54;100444.31;5056683;28;45508;-83
2022/11/30 09:21:20;;;;;;;;;4.00;3.67;;;;;13.68;66.76;100447.41;5056608;28;45252;-82
2022/11/30 09:23:47;;;;;;;;;2.67;2.67;;;;;14.13;64.93;100441.09;5056524;28;45502;-83
2022/11/30 09:26:16;;;;;;;;;7.33;7.00;;;;;14.69;62.58;100437.44;5056119;28;46197;-82
2022/11/30 09:28:43;;;;;;;;;5.00;4.00;;;;;15.07;61.51;100411.53;5058300;28;45401;-82
2022/11/30 09:31:17;;;;;;;;;9.00;8.33;;;;;15.57;59.48;100443.53;5059849;28;45357;-83
2022/11/30 09:33:43;;;;;;;;;17.75;16.75;;;;;15.74;59.02;100426.16;5060017;28;45413;-82
2022/11/30 09:36:11;;;;;;;;;8.00;7.00;;;;;15.89;57.85;100428.88;5059437;28;46128;-82
2022/11/30 09:38:38;;;;;;;;;15.50;15.50;;;;;15.87;57.23;100424.47;5059679;28;45303;-82
2022/11/30 09:41:26;;;;;;;;;7.00;6.00;;;;;15.88;57.79;100423.63;5059856;28;46066;-83
2022/11/30 09:43:51;;;;;;;;;1.33;1.33;;;;;16.08;58.08;100429.88;5018343;28;45460;-82
2022/11/30 09:46:26;;;;;;;;;0.67;0.67;;;;;16.22;58.56;100424.69;5059442;28;45805;-82
2022/11/30 09:49:03;;;;;;;;;8.00;8.00;;;;;16.10;56.68;100424.63;5057930;28;45434;-83
2022/11/30 09:51:34;;;;;;;;;11.00;10.00;;;;;16.18;57.16;100427.31;5059737;28;45306;-83
2022/11/30 09:54:12;;;;;;;;;44.75;38.00;;;;;16.18;57.42;100424.66;5059490;28;45590;-80
2022/11/30 09:56:39;;;;;;;;;22.00;21.00;;;;;16.23;57.82;100420.28;5059338;28;45458;-83
2022/11/30 09:59:28;;;;;;;;;25.75;24.75;;;;;16.24;56.28;100415.03;5059122;28;45431;-83
2022/11/30 10:01:55;;;;;;;;;7.67;7.67;;;;;16.51;56.81;100423.91;5059483;28;45349;-83
2022/11/30 10:04:28;;;;;;;;;3.33;3.33;;;;;16.70;55.96;100415.19;5060025;28;45499;-81
2022/11/30 10:07:29;;;;;;;;;1.00;1.00;;;;;16.94;56.94;100417.91;5059032;28;45520;-83
2022/11/30 10:10:06;;;;;;;;;1.00;1.00;;;;;17.17;55.86;100421.47;5059178;28;45258;-83
2022/11/30 10:12:55;;;;;;;;;4.00;3.67;;;;;17.20;53.45;100416.19;5059387;28;45418;-83
2022/11/30 10:15:34;;;;;;;;;1.67;1.67;;;;;17.35;54.55;100411.78;5059342;28;45214;-83
2022/11/30 10:18:16;;;;;;;;;4.00;2.33;;;;;17.50;53.86;100414.44;5059357;28;46202;-84
2022/11/30 10:20:45;;;;;;;;;7.00;6.33;;;;;17.57;53.22;100410.03;5058882;28;45342;-84
2022/11/30 10:24:10;;;;;;;;;0.67;0.33;;;;;17.62;54.53;100397.69;5058839;28;45320;-84
2022/11/30 10:26:40;;;;;;;;;2.67;2.67;;;;;17.54;54.81;100373.06;4996650;28;45517;-80
2022/11/30 10:29:19;;;;;;;;;2.67;2.67;;;;;17.69;55.19;100407.38;5047359;28;46123;-83
2022/11/30 10:31:48;;;;;;;;;1.33;1.00;;;;;17.70;55.39;100401.19;5058698;28;45345;-85
2022/11/30 10:34:23;;;;;;;;;2.67;2.67;;;;;17.47;54.23;100402.13;5058857;28;45333;-85
2022/11/30 10:37:11;;;;;;;;;1.67;1.67;;;;;17.16;56.55;100350.19;5059112;28;45583;-84
2022/11/30 10:39:57;;;;;;;;;3.00;3.00;;;;;17.40;56.15;100391.56;5057310;28;45599;-84
2022/11/30 10:42:41;;;;;;;;;2.33;2.00;;;;;17.46;57.26;100386.25;5058488;28;45611;-84
2022/11/30 10:45:18;;;;;;;;;8.33;7.33;;;;;17.27;56.36;100374.84;5058694;28;45579;-85
2022/11/30 10:48:14;;;;;;;;;6.33;6.00;;;;;17.13;57.31;100358.09;5074688;28;45403;-85
2022/11/30 10:50:40;;;;;;;;;5.67;5.67;;;;;17.13;58.46;100350.19;5074096;28;47956;-83
2022/11/30 10:53:10;;;;;;;;;7.67;7.33;;;;;17.30;58.61;100364.28;5058291;28;45417;-84
2022/11/30 10:55:41;;;;;;;;;12.00;11.67;;;;;17.25;57.51;100361.63;5058517;28;45486;-84
2022/11/30 10:58:14;;;;;;;;;4.67;4.33;;;;;17.25;57.41;100353.72;5058844;28;45448;-84
2022/11/30 11:00:42;;;;;;;;;3.67;3.00;;;;;17.25;57.83;100361.63;5058418;28;46207;-83
2022/11/30 11:03:25;;;;;;;;;6.00;5.67;;;;;17.09;57.45;100352.84;5058435;28;45496;-81
2022/11/30 11:06:14;;;;;;;;;7.00;6.00;;;;;16.99;57.18;100355.47;5058245;28;45238;-81
2022/11/30 11:08:41;;;;;;;;;5.00;4.00;;;;;16.61;58.03;100328.16;5058453;28;45490;-83
2022/11/30 11:11:25;;;;;;;;;4.00;3.00;;;;;16.56;57.67;100352.75;5058332;28;45458;-83
2022/11/30 11:13:51;;;;;;;;;3.00;3.00;;;;;16.44;58.45;100349.19;5058049;28;45442;-83
2022/11/30 11:16:17;;;;;;;;;2.33;2.33;;;;;16.26;57.93;100328.06;5057979;28;45318;-84
2022/11/30 11:18:54;;;;;;;;;15.67;15.67;;;;;16.06;58.59;100344.66;5058348;28;45734;-84
2022/11/30 11:21:22;;;;;;;;;6.67;6.00;;;;;16.02;58.10;100344.66;5057999;28;45480;-83
2022/11/30 11:23:54;;;;;;;;;8.67;8.00;;;;;15.97;58.89;100347.25;5057871;28;45464;-82
2022/11/30 11:26:27;;;;;;;;;9.00;8.67;;;;;15.78;58.92;100309.41;5057901;28;45638;-83
2022/11/30 11:29:00;;;;;;;;;6.00;5.33;;;;;15.89;59.62;100327.88;5058106;28;45336;-84
2022/11/30 11:31:39;;;;;;;;;2.00;2.00;;;;;16.08;59.89;100329.75;5056524;28;45520;-84
2022/11/30 11:34:27;;;;;;;;;3.67;3.67;;;;;16.13;59.33;100332.38;5057910;28;45379;-70
2022/11/30 11:37:21;;;;;;;;;8.67;8.67;;;;;16.25;59.97;100326.28;5057890;28;45513;-84